sensor_id;sensor_type;location;lat;lon;timestamp;P1;durP1;ratioP1;P2;durP2;ratioP2
26474;SDS011;14161;52.270;10.334;2022-08-04T00:04:12;3.97;;;2.10;;
26474;SDS011;14161;52.270;10.334;2022-08-04T00:09:21;4.82;;;2.33;;
26474;SDS011;14161;52.270;10.334;2022-08-04T00:11:55;2.92;;;2.10;;
26474;SDS011;14161;52.270;10.334;2022-08-04T00:14:22;3.30;;;2.00;;
26474;SDS011;14161;52.270;10.334;2022-08-04T00:16:49;3.78;;;2.22;;
26474;SDS011;14161;52.270;10.334;2022-08-04T00:21:51;3.45;;;2.05;;
26474;SDS011;14161;52.270;10.334;2022-08-04T00:24:22;2.63;;;1.67;;
26474;SDS011;14161;52.270;10.334;2022-08-04T00:26:50;3.38;;;2.03;;
26474;SDS011;14161;52.270;10.334;2022-08-04T00:29:17;4.18;;;2.10;;
26474;SDS011;14161;52.270;10.334;2022-08-04T00:31:43;6.93;;;2.25;;
26474;SDS011;14161;52.270;10.334;2022-08-04T00:34:10;3.97;;;2.25;;
26474;SDS011;14161;52.270;10.334;2022-08-04T00:36:37;9.38;;;2.50;;
26474;SDS011;14161;52.270;10.334;2022-08-04T00:39:02;7.05;;;2.20;;
26474;SDS011;14161;52.270;10.334;2022-08-04T00:41:30;5.90;;;2.67;;
26474;SDS011;14161;52.270;10.334;2022-08-04T00:44:22;5.50;;;2.28;;
26474;SDS011;14161;52.270;10.334;2022-08-04T00:50:18;3.90;;;2.75;;
26474;SDS011;14161;52.270;10.334;2022-08-04T01:03:22;4.47;;;2.88;;
26474;SDS011;14161;52.270;10.334;2022-08-04T01:11:25;3.10;;;2.38;;
26474;SDS011;14161;52.270;10.334;2022-08-04T01:14:19;3.63;;;2.25;;
26474;SDS011;14161;52.270;10.334;2022-08-04T01:17:36;2.90;;;2.10;;
26474;SDS011;14161;52.270;10.334;2022-08-04T01:20:04;2.78;;;2.45;;
26474;SDS011;14161;52.270;10.334;2022-08-04T01:28:02;2.40;;;2.08;;
26474;SDS011;14161;52.270;10.334;2022-08-04T01:30:48;5.90;;;2.60;;
26474;SDS011;14161;52.270;10.334;2022-08-04T01:33:17;3.53;;;1.98;;
26474;SDS011;14161;52.270;10.334;2022-08-04T01:35:46;2.55;;;2.08;;
26474;SDS011;14161;52.270;10.334;2022-08-04T01:38:30;3.30;;;2.30;;
26474;SDS011;14161;52.270;10.334;2022-08-04T01:41:03;2.97;;;2.10;;
26474;SDS011;14161;52.270;10.334;2022-08-04T01:43:42;4.85;;;2.65;;
26474;SDS011;14161;52.270;10.334;2022-08-04T01:46:15;4.78;;;2.70;;
26474;SDS011;14161;52.270;10.334;2022-08-04T01:48:43;3.13;;;2.47;;
26474;SDS011;14161;52.270;10.334;2022-08-04T01:51:10;3.97;;;2.60;;
26474;SDS011;14161;52.270;10.334;2022-08-04T01:53:36;4.68;;;3.20;;
26474;SDS011;14161;52.270;10.334;2022-08-04T01:56:04;4.70;;;2.92;;
26474;SDS011;14161;52.270;10.334;2022-08-04T01:58:30;4.72;;;3.72;;
26474;SDS011;14161;52.270;10.334;2022-08-04T02:00:58;5.15;;;2.97;;
26474;SDS011;14161;52.270;10.334;2022-08-04T02:03:29;7.70;;;3.40;;
26474;SDS011;14161;52.270;10.334;2022-08-04T02:06:03;5.43;;;3.40;;
26474;SDS011;14161;52.270;10.334;2022-08-04T02:11:45;3.25;;;2.95;;
26474;SDS011;14161;52.270;10.334;2022-08-04T02:14:23;4.43;;;2.73;;
26474;SDS011;14161;52.270;10.334;2022-08-04T02:17:18;9.27;;;2.83;;
26474;SDS011;14161;52.270;10.334;2022-08-04T02:20:03;6.20;;;3.38;;
26474;SDS011;14161;52.270;10.334;2022-08-04T02:22:38;7.13;;;3.10;;
26474;SDS011;14161;52.270;10.334;2022-08-04T02:25:08;5.20;;;3.30;;
26474;SDS011;14161;52.270;10.334;2022-08-04T02:27:42;7.88;;;3.08;;
26474;SDS011;14161;52.270;10.334;2022-08-04T02:30:10;3.63;;;3.17;;
26474;SDS011;14161;52.270;10.334;2022-08-04T02:32:36;5.20;;;2.90;;
26474;SDS011;14161;52.270;10.334;2022-08-04T02:37:33;4.88;;;3.17;;
26474;SDS011;14161;52.270;10.334;2022-08-04T02:40:00;4.90;;;3.35;;
26474;SDS011;14161;52.270;10.334;2022-08-04T02:42:28;4.97;;;2.70;;
26474;SDS011;14161;52.270;10.334;2022-08-04T02:44:55;4.78;;;3.08;;
26474;SDS011;14161;52.270;10.334;2022-08-04T02:47:24;4.78;;;2.65;;
26474;SDS011;14161;52.270;10.334;2022-08-04T02:49:50;4.15;;;2.63;;
26474;SDS011;14161;52.270;10.334;2022-08-04T02:52:17;3.30;;;3.00;;
26474;SDS011;14161;52.270;10.334;2022-08-04T02:54:44;3.83;;;2.53;;
26474;SDS011;14161;52.270;10.334;2022-08-04T02:57:12;4.05;;;3.03;;
26474;SDS011;14161;52.270;10.334;2022-08-04T03:02:29;2.85;;;2.58;;
26474;SDS011;14161;52.270;10.334;2022-08-04T03:05:18;4.13;;;3.33;;
26474;SDS011;14161;52.270;10.334;2022-08-04T03:08:11;4.22;;;2.58;;
26474;SDS011;14161;52.270;10.334;2022-08-04T03:16:49;3.53;;;2.70;;
26474;SDS011;14161;52.270;10.334;2022-08-04T03:39:11;3.40;;;2.65;;
26474;SDS011;14161;52.270;10.334;2022-08-04T03:41:54;2.78;;;2.53;;
26474;SDS011;14161;52.270;10.334;2022-08-04T03:49:40;4.05;;;2.85;;
26474;SDS011;14161;52.270;10.334;2022-08-04T03:55:38;4.65;;;2.97;;
26474;SDS011;14161;52.270;10.334;2022-08-04T03:58:19;4.32;;;2.92;;
26474;SDS011;14161;52.270;10.334;2022-08-04T04:07:11;4.00;;;2.65;;
26474;SDS011;14161;52.270;10.334;2022-08-04T04:30:12;5.43;;;3.30;;
26474;SDS011;14161;52.270;10.334;2022-08-04T04:32:46;3.40;;;2.47;;
26474;SDS011;14161;52.270;10.334;2022-08-04T04:35:53;4.55;;;2.80;;
26474;SDS011;14161;52.270;10.334;2022-08-04T04:47:17;4.00;;;2.53;;
26474;SDS011;14161;52.270;10.334;2022-08-04T04:50:03;2.97;;;2.72;;
26474;SDS011;14161;52.270;10.334;2022-08-04T04:52:49;3.35;;;2.80;;
26474;SDS011;14161;52.270;10.334;2022-08-04T04:55:30;4.95;;;2.97;;
26474;SDS011;14161;52.270;10.334;2022-08-04T04:58:01;3.85;;;2.75;;
26474;SDS011;14161;52.270;10.334;2022-08-04T05:00:33;3.20;;;2.40;;
26474;SDS011;14161;52.270;10.334;2022-08-04T05:17:19;7.45;;;2.92;;
26474;SDS011;14161;52.270;10.334;2022-08-04T05:19:56;3.92;;;2.72;;
26474;SDS011;14161;52.270;10.334;2022-08-04T05:22:38;3.00;;;2.67;;
26474;SDS011;14161;52.270;10.334;2022-08-04T05:25:20;5.00;;;3.28;;
26474;SDS011;14161;52.270;10.334;2022-08-04T05:27:50;7.20;;;2.92;;
26474;SDS011;14161;52.270;10.334;2022-08-04T05:30:22;3.58;;;2.92;;
26474;SDS011;14161;52.270;10.334;2022-08-04T05:32:56;4.10;;;2.92;;
26474;SDS011;14161;52.270;10.334;2022-08-04T05:35:35;6.30;;;2.75;;
26474;SDS011;14161;52.270;10.334;2022-08-04T05:38:05;4.22;;;2.78;;
26474;SDS011;14161;52.270;10.334;2022-08-04T05:40:32;4.85;;;2.70;;
26474;SDS011;14161;52.270;10.334;2022-08-04T05:42:57;6.72;;;2.60;;
26474;SDS011;14161;52.270;10.334;2022-08-04T05:45:23;2.90;;;2.60;;
26474;SDS011;14161;52.270;10.334;2022-08-04T05:47:50;5.75;;;2.72;;
26474;SDS011;14161;52.270;10.334;2022-08-04T05:50:16;9.90;;;2.80;;
26474;SDS011;14161;52.270;10.334;2022-08-04T05:52:42;3.78;;;2.70;;
26474;SDS011;14161;52.270;10.334;2022-08-04T05:55:08;3.63;;;2.25;;
26474;SDS011;14161;52.270;10.334;2022-08-04T05:57:38;3.28;;;2.45;;
26474;SDS011;14161;52.270;10.334;2022-08-04T06:00:04;6.70;;;2.38;;
26474;SDS011;14161;52.270;10.334;2022-08-04T06:02:31;3.63;;;2.35;;
26474;SDS011;14161;52.270;10.334;2022-08-04T06:04:57;6.78;;;2.28;;
26474;SDS011;14161;52.270;10.334;2022-08-04T06:07:23;3.70;;;2.35;;
26474;SDS011;14161;52.270;10.334;2022-08-04T06:09:51;2.55;;;2.30;;
26474;SDS011;14161;52.270;10.334;2022-08-04T06:12:24;6.80;;;2.55;;
26474;SDS011;14161;52.270;10.334;2022-08-04T06:14:52;6.82;;;2.35;;
26474;SDS011;14161;52.270;10.334;2022-08-04T06:17:23;12.73;;;2.88;;
26474;SDS011;14161;52.270;10.334;2022-08-04T06:20:00;8.20;;;2.33;;
26474;SDS011;14161;52.270;10.334;2022-08-04T06:22:26;3.67;;;2.40;;
26474;SDS011;14161;52.270;10.334;2022-08-04T06:24:56;6.93;;;2.75;;
26474;SDS011;14161;52.270;10.334;2022-08-04T06:27:22;6.65;;;3.85;;
26474;SDS011;14161;52.270;10.334;2022-08-04T06:29:48;12.63;;;5.63;;
26474;SDS011;14161;52.270;10.334;2022-08-04T06:32:14;11.15;;;5.10;;
26474;SDS011;14161;52.270;10.334;2022-08-04T06:35:05;10.27;;;4.90;;
26474;SDS011;14161;52.270;10.334;2022-08-04T06:37:31;9.57;;;4.63;;
26474;SDS011;14161;52.270;10.334;2022-08-04T06:39:58;6.90;;;4.38;;
26474;SDS011;14161;52.270;10.334;2022-08-04T06:42:26;13.02;;;3.97;;
26474;SDS011;14161;52.270;10.334;2022-08-04T06:44:56;6.28;;;3.60;;
26474;SDS011;14161;52.270;10.334;2022-08-04T06:47:22;6.95;;;3.08;;
26474;SDS011;14161;52.270;10.334;2022-08-04T06:49:48;6.38;;;3.65;;
26474;SDS011;14161;52.270;10.334;2022-08-04T06:52:19;7.15;;;3.22;;
26474;SDS011;14161;52.270;10.334;2022-08-04T06:54:49;5.43;;;2.90;;
26474;SDS011;14161;52.270;10.334;2022-08-04T06:57:17;3.50;;;2.75;;
26474;SDS011;14161;52.270;10.334;2022-08-04T06:59:45;9.10;;;3.38;;
26474;SDS011;14161;52.270;10.334;2022-08-04T07:02:13;6.75;;;2.90;;
26474;SDS011;14161;52.270;10.334;2022-08-04T07:04:42;3.97;;;2.72;;
26474;SDS011;14161;52.270;10.334;2022-08-04T07:07:13;3.35;;;2.53;;
26474;SDS011;14161;52.270;10.334;2022-08-04T07:09:40;2.78;;;2.30;;
26474;SDS011;14161;52.270;10.334;2022-08-04T07:12:06;3.80;;;2.50;;
26474;SDS011;14161;52.270;10.334;2022-08-04T07:14:33;5.00;;;2.40;;
26474;SDS011;14161;52.270;10.334;2022-08-04T07:17:03;2.38;;;2.13;;
26474;SDS011;14161;52.270;10.334;2022-08-04T07:19:32;3.65;;;2.03;;
26474;SDS011;14161;52.270;10.334;2022-08-04T07:22:02;5.43;;;2.03;;
26474;SDS011;14161;52.270;10.334;2022-08-04T07:24:32;2.63;;;1.90;;
26474;SDS011;14161;52.270;10.334;2022-08-04T07:27:02;2.90;;;1.85;;
26474;SDS011;14161;52.270;10.334;2022-08-04T07:29:40;3.58;;;1.83;;
26474;SDS011;14161;52.270;10.334;2022-08-04T07:32:06;4.75;;;2.00;;
26474;SDS011;14161;52.270;10.334;2022-08-04T07:34:32;4.95;;;1.88;;
26474;SDS011;14161;52.270;10.334;2022-08-04T07:37:01;2.80;;;2.10;;
26474;SDS011;14161;52.270;10.334;2022-08-04T07:39:29;3.65;;;1.85;;
26474;SDS011;14161;52.270;10.334;2022-08-04T07:42:01;2.97;;;2.10;;
26474;SDS011;14161;52.270;10.334;2022-08-04T07:44:32;3.05;;;1.95;;
26474;SDS011;14161;52.270;10.334;2022-08-04T07:47:04;5.60;;;1.88;;
26474;SDS011;14161;52.270;10.334;2022-08-04T07:49:34;4.57;;;1.80;;
26474;SDS011;14161;52.270;10.334;2022-08-04T07:52:00;2.03;;;1.73;;
26474;SDS011;14161;52.270;10.334;2022-08-04T07:54:26;4.10;;;2.10;;
26474;SDS011;14161;52.270;10.334;2022-08-04T07:56:52;4.82;;;1.80;;
26474;SDS011;14161;52.270;10.334;2022-08-04T07:59:19;3.97;;;1.85;;
26474;SDS011;14161;52.270;10.334;2022-08-04T08:01:45;5.20;;;1.80;;
26474;SDS011;14161;52.270;10.334;2022-08-04T08:04:12;3.58;;;1.80;;
26474;SDS011;14161;52.270;10.334;2022-08-04T08:06:38;2.05;;;1.60;;
26474;SDS011;14161;52.270;10.334;2022-08-04T08:09:07;3.58;;;1.80;;
26474;SDS011;14161;52.270;10.334;2022-08-04T08:11:37;2.70;;;1.40;;
26474;SDS011;14161;52.270;10.334;2022-08-04T08:14:03;5.75;;;1.80;;
26474;SDS011;14161;52.270;10.334;2022-08-04T08:16:29;3.42;;;1.70;;
26474;SDS011;14161;52.270;10.334;2022-08-04T08:19:04;2.42;;;1.75;;
26474;SDS011;14161;52.270;10.334;2022-08-04T08:21:38;2.22;;;1.58;;
26474;SDS011;14161;52.270;10.334;2022-08-04T08:24:07;1.58;;;1.40;;
26474;SDS011;14161;52.270;10.334;2022-08-04T08:26:35;4.90;;;1.60;;
26474;SDS011;14161;52.270;10.334;2022-08-04T08:29:07;3.22;;;1.42;;
26474;SDS011;14161;52.270;10.334;2022-08-04T08:31:33;1.63;;;1.33;;
26474;SDS011;14161;52.270;10.334;2022-08-04T08:34:14;1.65;;;1.40;;
26474;SDS011;14161;52.270;10.334;2022-08-04T08:36:42;2.25;;;1.33;;
26474;SDS011;14161;52.270;10.334;2022-08-04T09:01:52;3.72;;;1.55;;
26474;SDS011;14161;52.270;10.334;2022-08-04T09:09:18;7.30;;;1.65;;
26474;SDS011;14161;52.270;10.334;2022-08-04T09:11:57;4.40;;;1.67;;
26474;SDS011;14161;52.270;10.334;2022-08-04T09:14:35;1.33;;;1.23;;
26474;SDS011;14161;52.270;10.334;2022-08-04T09:17:09;4.20;;;1.40;;
26474;SDS011;14161;52.270;10.334;2022-08-04T09:20:02;2.90;;;1.55;;
26474;SDS011;14161;52.270;10.334;2022-08-04T09:22:42;4.20;;;1.60;;
26474;SDS011;14161;52.270;10.334;2022-08-04T09:25:22;2.30;;;1.67;;
26474;SDS011;14161;52.270;10.334;2022-08-04T09:31:06;2.63;;;1.50;;
26474;SDS011;14161;52.270;10.334;2022-08-04T09:36:02;2.75;;;2.00;;
26474;SDS011;14161;52.270;10.334;2022-08-04T09:47:12;8.18;;;2.17;;
26474;SDS011;14161;52.270;10.334;2022-08-04T09:56:37;5.45;;;1.98;;
26474;SDS011;14161;52.270;10.334;2022-08-04T09:59:18;2.78;;;1.70;;
26474;SDS011;14161;52.270;10.334;2022-08-04T10:01:49;2.15;;;1.38;;
26474;SDS011;14161;52.270;10.334;2022-08-04T10:04:39;1.90;;;1.60;;
26474;SDS011;14161;52.270;10.334;2022-08-04T10:07:20;1.30;;;1.20;;
26474;SDS011;14161;52.270;10.334;2022-08-04T10:10:14;2.83;;;1.25;;
26474;SDS011;14161;52.270;10.334;2022-08-04T10:13:44;2.38;;;1.65;;
26474;SDS011;14161;52.270;10.334;2022-08-04T10:21:25;3.10;;;1.50;;
26474;SDS011;14161;52.270;10.334;2022-08-04T10:24:06;2.53;;;1.58;;
26474;SDS011;14161;52.270;10.334;2022-08-04T10:27:00;1.83;;;1.50;;
26474;SDS011;14161;52.270;10.334;2022-08-04T10:29:40;1.45;;;1.33;;
26474;SDS011;14161;52.270;10.334;2022-08-04T10:35:07;3.15;;;1.67;;
26474;SDS011;14161;52.270;10.334;2022-08-04T10:40:31;1.75;;;1.40;;
26474;SDS011;14161;52.270;10.334;2022-08-04T10:45:45;2.55;;;1.48;;
26474;SDS011;14161;52.270;10.334;2022-08-04T10:51:10;4.27;;;1.60;;
26474;SDS011;14161;52.270;10.334;2022-08-04T10:53:51;5.97;;;1.95;;
26474;SDS011;14161;52.270;10.334;2022-08-04T14:04:21;1.40;;;1.30;;
26474;SDS011;14161;52.270;10.334;2022-08-04T14:07:13;2.40;;;1.55;;
26474;SDS011;14161;52.270;10.334;2022-08-04T14:09:42;2.90;;;1.65;;
26474;SDS011;14161;52.270;10.334;2022-08-04T14:12:11;2.83;;;1.60;;
26474;SDS011;14161;52.270;10.334;2022-08-04T14:14:48;1.70;;;1.60;;
26474;SDS011;14161;52.270;10.334;2022-08-04T14:17:23;1.60;;;1.48;;
26474;SDS011;14161;52.270;10.334;2022-08-04T14:25:10;1.50;;;1.40;;
26474;SDS011;14161;52.270;10.334;2022-08-04T14:27:42;5.18;;;1.77;;
26474;SDS011;14161;52.270;10.334;2022-08-04T14:30:24;4.68;;;1.60;;
26474;SDS011;14161;52.270;10.334;2022-08-04T14:33:03;3.08;;;1.80;;
26474;SDS011;14161;52.270;10.334;2022-08-04T14:37:59;1.27;;;1.17;;
26474;SDS011;14161;52.270;10.334;2022-08-04T14:40:29;1.63;;;1.52;;
26474;SDS011;14161;52.270;10.334;2022-08-04T14:42:57;1.60;;;1.50;;
26474;SDS011;14161;52.270;10.334;2022-08-04T14:45:33;2.13;;;1.55;;
26474;SDS011;14161;52.270;10.334;2022-08-04T14:48:11;2.33;;;1.67;;
26474;SDS011;14161;52.270;10.334;2022-08-04T14:50:40;3.35;;;1.67;;
26474;SDS011;14161;52.270;10.334;2022-08-04T14:53:08;1.90;;;1.67;;
26474;SDS011;14161;52.270;10.334;2022-08-04T14:55:35;2.50;;;1.85;;
26474;SDS011;14161;52.270;10.334;2022-08-04T14:58:02;3.38;;;1.65;;
26474;SDS011;14161;52.270;10.334;2022-08-04T15:00:29;1.83;;;1.73;;
26474;SDS011;14161;52.270;10.334;2022-08-04T15:02:59;2.67;;;1.63;;
26474;SDS011;14161;52.270;10.334;2022-08-04T15:05:27;1.83;;;1.70;;
26474;SDS011;14161;52.270;10.334;2022-08-04T15:07:54;1.70;;;1.60;;
26474;SDS011;14161;52.270;10.334;2022-08-04T15:10:20;1.92;;;1.50;;
26474;SDS011;14161;52.270;10.334;2022-08-04T15:12:46;1.58;;;1.48;;
26474;SDS011;14161;52.270;10.334;2022-08-04T15:15:12;1.40;;;1.30;;
26474;SDS011;14161;52.270;10.334;2022-08-04T15:17:37;1.48;;;1.38;;
26474;SDS011;14161;52.270;10.334;2022-08-04T15:20:04;1.70;;;1.60;;
26474;SDS011;14161;52.270;10.334;2022-08-04T15:22:31;2.08;;;1.50;;
26474;SDS011;14161;52.270;10.334;2022-08-04T15:25:04;4.53;;;1.50;;
26474;SDS011;14161;52.270;10.334;2022-08-04T15:35:17;2.70;;;1.40;;
26474;SDS011;14161;52.270;10.334;2022-08-04T15:40:29;16.42;;;2.03;;
26474;SDS011;14161;52.270;10.334;2022-08-04T15:45:47;5.60;;;1.65;;
26474;SDS011;14161;52.270;10.334;2022-08-04T15:53:20;4.93;;;1.50;;
26474;SDS011;14161;52.270;10.334;2022-08-04T15:55:46;5.78;;;1.40;;
26474;SDS011;14161;52.270;10.334;2022-08-04T15:58:12;2.78;;;1.58;;
26474;SDS011;14161;52.270;10.334;2022-08-04T16:01:21;3.85;;;1.65;;
26474;SDS011;14161;52.270;10.334;2022-08-04T16:08:30;1.92;;;1.40;;
26474;SDS011;14161;52.270;10.334;2022-08-04T16:22:35;2.53;;;1.52;;
26474;SDS011;14161;52.270;10.334;2022-08-04T16:25:02;4.50;;;1.80;;
26474;SDS011;14161;52.270;10.334;2022-08-04T16:27:36;4.05;;;1.70;;
26474;SDS011;14161;52.270;10.334;2022-08-04T16:30:06;2.95;;;1.52;;
26474;SDS011;14161;52.270;10.334;2022-08-04T16:32:40;3.60;;;1.52;;
26474;SDS011;14161;52.270;10.334;2022-08-04T16:35:18;2.42;;;1.55;;
26474;SDS011;14161;52.270;10.334;2022-08-04T16:37:51;4.15;;;1.67;;
26474;SDS011;14161;52.270;10.334;2022-08-04T16:40:33;1.95;;;1.40;;
26474;SDS011;14161;52.270;10.334;2022-08-04T16:48:18;2.53;;;1.40;;
26474;SDS011;14161;52.270;10.334;2022-08-04T16:50:52;1.83;;;1.50;;
26474;SDS011;14161;52.270;10.334;2022-08-04T16:53:22;7.13;;;1.80;;
26474;SDS011;14161;52.270;10.334;2022-08-04T16:55:51;3.50;;;1.70;;
26474;SDS011;14161;52.270;10.334;2022-08-04T17:01:11;17.40;;;1.77;;
26474;SDS011;14161;52.270;10.334;2022-08-04T17:03:48;7.28;;;1.70;;
26474;SDS011;14161;52.270;10.334;2022-08-04T17:07:12;9.55;;;1.67;;
26474;SDS011;14161;52.270;10.334;2022-08-04T17:09:37;11.88;;;1.80;;
26474;SDS011;14161;52.270;10.334;2022-08-04T17:12:13;3.63;;;1.58;;
26474;SDS011;14161;52.270;10.334;2022-08-04T17:14:39;7.68;;;1.50;;
26474;SDS011;14161;52.270;10.334;2022-08-04T17:17:04;6.68;;;1.48;;
26474;SDS011;14161;52.270;10.334;2022-08-04T17:19:30;7.57;;;1.50;;
26474;SDS011;14161;52.270;10.334;2022-08-04T17:21:56;8.88;;;1.50;;
26474;SDS011;14161;52.270;10.334;2022-08-04T17:24:25;9.85;;;1.73;;
26474;SDS011;14161;52.270;10.334;2022-08-04T17:26:51;9.75;;;1.70;;
26474;SDS011;14161;52.270;10.334;2022-08-04T17:29:16;3.88;;;1.58;;
26474;SDS011;14161;52.270;10.334;2022-08-04T17:31:42;5.55;;;1.70;;
26474;SDS011;14161;52.270;10.334;2022-08-04T17:34:08;6.47;;;1.38;;
26474;SDS011;14161;52.270;10.334;2022-08-04T17:36:36;1.48;;;1.30;;
26474;SDS011;14161;52.270;10.334;2022-08-04T17:39:09;4.32;;;1.20;;
26474;SDS011;14161;52.270;10.334;2022-08-04T17:41:37;7.47;;;1.80;;
26474;SDS011;14161;52.270;10.334;2022-08-04T17:44:03;9.35;;;1.98;;
26474;SDS011;14161;52.270;10.334;2022-08-04T17:46:35;6.45;;;1.83;;
26474;SDS011;14161;52.270;10.334;2022-08-04T17:51:31;5.88;;;1.58;;
26474;SDS011;14161;52.270;10.334;2022-08-04T17:54:19;4.82;;;1.50;;
26474;SDS011;14161;52.270;10.334;2022-08-04T19:13:51;2.85;;;1.50;;
26474;SDS011;14161;52.270;10.334;2022-08-04T19:16:19;4.22;;;1.23;;
26474;SDS011;14161;52.270;10.334;2022-08-04T19:18:47;4.50;;;1.42;;
26474;SDS011;14161;52.270;10.334;2022-08-04T19:21:16;2.45;;;1.23;;
26474;SDS011;14161;52.270;10.334;2022-08-04T19:23:43;3.00;;;1.55;;
26474;SDS011;14161;52.270;10.334;2022-08-04T19:26:08;3.30;;;1.48;;
26474;SDS011;14161;52.270;10.334;2022-08-04T19:28:36;4.20;;;1.70;;
26474;SDS011;14161;52.270;10.334;2022-08-04T19:31:02;3.72;;;1.35;;
26474;SDS011;14161;52.270;10.334;2022-08-04T19:33:29;3.47;;;1.75;;
26474;SDS011;14161;52.270;10.334;2022-08-04T19:35:55;4.75;;;1.67;;
26474;SDS011;14161;52.270;10.334;2022-08-04T19:38:21;5.50;;;1.60;;
26474;SDS011;14161;52.270;10.334;2022-08-04T19:40:46;2.83;;;1.60;;
26474;SDS011;14161;52.270;10.334;2022-08-04T19:43:12;5.85;;;1.70;;
26474;SDS011;14161;52.270;10.334;2022-08-04T19:45:43;5.35;;;1.40;;
26474;SDS011;14161;52.270;10.334;2022-08-04T19:48:09;3.05;;;1.50;;
26474;SDS011;14161;52.270;10.334;2022-08-04T19:50:34;5.38;;;1.60;;
26474;SDS011;14161;52.270;10.334;2022-08-04T19:53:00;3.53;;;1.70;;
26474;SDS011;14161;52.270;10.334;2022-08-04T19:55:25;3.53;;;1.08;;
26474;SDS011;14161;52.270;10.334;2022-08-04T19:57:51;4.78;;;1.70;;
26474;SDS011;14161;52.270;10.334;2022-08-04T20:00:17;4.90;;;1.58;;
26474;SDS011;14161;52.270;10.334;2022-08-04T20:02:44;2.72;;;1.27;;
26474;SDS011;14161;52.270;10.334;2022-08-04T20:05:09;3.20;;;1.27;;
26474;SDS011;14161;52.270;10.334;2022-08-04T20:07:36;8.85;;;1.60;;
26474;SDS011;14161;52.270;10.334;2022-08-04T20:10:02;2.08;;;1.25;;
26474;SDS011;14161;52.270;10.334;2022-08-04T20:12:28;1.92;;;1.20;;
26474;SDS011;14161;52.270;10.334;2022-08-04T20:14:54;2.60;;;1.23;;
26474;SDS011;14161;52.270;10.334;2022-08-04T20:17:20;3.25;;;1.52;;
26474;SDS011;14161;52.270;10.334;2022-08-04T20:19:45;6.93;;;1.48;;
26474;SDS011;14161;52.270;10.334;2022-08-04T20:22:11;4.10;;;1.48;;
26474;SDS011;14161;52.270;10.334;2022-08-04T20:24:37;2.15;;;1.20;;
26474;SDS011;14161;52.270;10.334;2022-08-04T20:27:03;3.30;;;1.40;;
26474;SDS011;14161;52.270;10.334;2022-08-04T20:29:28;2.63;;;1.45;;
26474;SDS011;14161;52.270;10.334;2022-08-04T20:31:54;1.98;;;1.38;;
26474;SDS011;14161;52.270;10.334;2022-08-04T20:34:19;2.95;;;1.20;;
26474;SDS011;14161;52.270;10.334;2022-08-04T20:36:44;2.33;;;1.17;;
26474;SDS011;14161;52.270;10.334;2022-08-04T20:39:10;1.00;;;1.00;;
26474;SDS011;14161;52.270;10.334;2022-08-04T20:41:35;3.15;;;1.60;;
26474;SDS011;14161;52.270;10.334;2022-08-04T20:44:01;6.50;;;1.67;;
26474;SDS011;14161;52.270;10.334;2022-08-04T20:46:26;2.47;;;1.40;;
26474;SDS011;14161;52.270;10.334;2022-08-04T20:48:53;2.35;;;1.23;;
26474;SDS011;14161;52.270;10.334;2022-08-04T20:51:18;4.07;;;1.30;;
26474;SDS011;14161;52.270;10.334;2022-08-04T20:53:47;2.78;;;1.30;;
26474;SDS011;14161;52.270;10.334;2022-08-04T20:56:13;1.80;;;1.48;;
26474;SDS011;14161;52.270;10.334;2022-08-04T20:58:38;1.60;;;1.30;;
26474;SDS011;14161;52.270;10.334;2022-08-04T21:01:04;3.25;;;1.50;;
26474;SDS011;14161;52.270;10.334;2022-08-04T21:03:30;1.88;;;1.23;;
26474;SDS011;14161;52.270;10.334;2022-08-04T21:05:55;2.05;;;1.23;;
26474;SDS011;14161;52.270;10.334;2022-08-04T21:08:24;1.40;;;1.23;;
26474;SDS011;14161;52.270;10.334;2022-08-04T21:10:49;1.42;;;1.33;;
26474;SDS011;14161;52.270;10.334;2022-08-04T21:13:15;4.47;;;1.73;;
26474;SDS011;14161;52.270;10.334;2022-08-04T21:15:40;3.47;;;1.30;;
26474;SDS011;14161;52.270;10.334;2022-08-04T21:18:05;1.48;;;1.15;;
26474;SDS011;14161;52.270;10.334;2022-08-04T21:20:31;1.80;;;1.27;;
26474;SDS011;14161;52.270;10.334;2022-08-04T21:22:57;2.60;;;1.35;;
26474;SDS011;14161;52.270;10.334;2022-08-04T21:25:23;2.15;;;1.13;;
26474;SDS011;14161;52.270;10.334;2022-08-04T21:27:49;3.90;;;1.45;;
26474;SDS011;14161;52.270;10.334;2022-08-04T21:30:14;1.88;;;1.10;;
26474;SDS011;14161;52.270;10.334;2022-08-04T21:32:39;3.05;;;1.30;;
26474;SDS011;14161;52.270;10.334;2022-08-04T21:35:05;1.42;;;1.13;;
26474;SDS011;14161;52.270;10.334;2022-08-04T21:37:31;2.60;;;1.30;;
26474;SDS011;14161;52.270;10.334;2022-08-04T21:39:57;2.40;;;1.50;;
26474;SDS011;14161;52.270;10.334;2022-08-04T21:42:22;2.55;;;1.50;;
26474;SDS011;14161;52.270;10.334;2022-08-04T21:44:48;4.90;;;1.50;;
26474;SDS011;14161;52.270;10.334;2022-08-04T21:47:13;1.58;;;1.48;;
26474;SDS011;14161;52.270;10.334;2022-08-04T21:49:39;4.63;;;1.52;;
26474;SDS011;14161;52.270;10.334;2022-08-04T21:52:04;1.80;;;1.38;;
26474;SDS011;14161;52.270;10.334;2022-08-04T21:54:30;1.85;;;1.20;;
26474;SDS011;14161;52.270;10.334;2022-08-04T21:56:55;2.47;;;1.35;;
26474;SDS011;14161;52.270;10.334;2022-08-04T21:59:21;1.63;;;1.13;;
26474;SDS011;14161;52.270;10.334;2022-08-04T22:01:46;2.05;;;1.42;;
26474;SDS011;14161;52.270;10.334;2022-08-04T22:04:12;3.85;;;1.15;;
26474;SDS011;14161;52.270;10.334;2022-08-04T22:06:37;3.85;;;1.77;;
26474;SDS011;14161;52.270;10.334;2022-08-04T22:09:03;2.60;;;1.30;;
26474;SDS011;14161;52.270;10.334;2022-08-04T22:11:29;3.72;;;1.60;;
26474;SDS011;14161;52.270;10.334;2022-08-04T22:13:59;4.28;;;1.33;;
26474;SDS011;14161;52.270;10.334;2022-08-04T22:16:32;2.15;;;1.40;;
26474;SDS011;14161;52.270;10.334;2022-08-04T22:18:58;1.98;;;1.40;;
26474;SDS011;14161;52.270;10.334;2022-08-04T22:21:24;4.22;;;1.52;;
26474;SDS011;14161;52.270;10.334;2022-08-04T22:23:50;2.08;;;1.42;;
26474;SDS011;14161;52.270;10.334;2022-08-04T22:26:17;6.03;;;1.58;;
26474;SDS011;14161;52.270;10.334;2022-08-04T22:28:43;3.63;;;1.60;;
26474;SDS011;14161;52.270;10.334;2022-08-04T22:31:09;5.65;;;1.50;;
26474;SDS011;14161;52.270;10.334;2022-08-04T22:33:35;5.65;;;1.63;;
26474;SDS011;14161;52.270;10.334;2022-08-04T22:36:01;5.38;;;1.55;;
26474;SDS011;14161;52.270;10.334;2022-08-04T22:38:26;3.92;;;1.48;;
26474;SDS011;14161;52.270;10.334;2022-08-04T22:40:58;3.58;;;1.40;;
26474;SDS011;14161;52.270;10.334;2022-08-04T22:43:25;3.75;;;1.50;;
26474;SDS011;14161;52.270;10.334;2022-08-04T22:45:51;4.57;;;1.77;;
26474;SDS011;14161;52.270;10.334;2022-08-04T22:48:16;3.10;;;1.67;;
26474;SDS011;14161;52.270;10.334;2022-08-04T22:50:42;1.48;;;1.38;;
26474;SDS011;14161;52.270;10.334;2022-08-04T22:53:08;1.85;;;1.60;;
26474;SDS011;14161;52.270;10.334;2022-08-04T22:55:33;2.22;;;1.48;;
26474;SDS011;14161;52.270;10.334;2022-08-04T22:57:58;3.83;;;1.80;;
26474;SDS011;14161;52.270;10.334;2022-08-04T23:00:24;2.75;;;1.67;;
26474;SDS011;14161;52.270;10.334;2022-08-04T23:02:49;2.47;;;1.85;;
26474;SDS011;14161;52.270;10.334;2022-08-04T23:05:15;2.88;;;1.58;;
26474;SDS011;14161;52.270;10.334;2022-08-04T23:07:40;2.80;;;1.70;;
26474;SDS011;14161;52.270;10.334;2022-08-04T23:10:06;2.22;;;1.63;;
26474;SDS011;14161;52.270;10.334;2022-08-04T23:12:32;3.38;;;1.80;;
26474;SDS011;14161;52.270;10.334;2022-08-04T23:14:57;2.70;;;1.52;;
26474;SDS011;14161;52.270;10.334;2022-08-04T23:17:23;3.38;;;1.90;;
26474;SDS011;14161;52.270;10.334;2022-08-04T23:19:49;4.97;;;1.67;;
26474;SDS011;14161;52.270;10.334;2022-08-04T23:22:14;2.80;;;1.60;;